createdAt,value
2018-07-15T00:00:48.031Z,373.15
2018-07-15T00:02:50.032Z,360.73
2018-07-15T00:04:52.018Z,378.18
2018-07-15T00:06:53.985Z,363.50
2018-07-15T00:08:55.942Z,353.95
2018-07-15T00:10:57.936Z,354.13
2018-07-15T00:13:00.308Z,344.02
2018-07-15T00:15:02.157Z,338.02
2018-07-15T00:17:04.204Z,332.57
2018-07-15T00:19:06.199Z,335.52
2018-07-15T00:21:08.162Z,330.48
2018-07-15T00:23:10.171Z,314.38
2018-07-15T00:25:12.128Z,333.40
2018-07-15T00:27:14.109Z,314.15
2018-07-15T00:29:16.095Z,312.98
2018-07-15T00:31:18.068Z,314.08
2018-07-15T00:33:20.058Z,292.77
2018-07-15T00:35:22.058Z,287.80
2018-07-15T00:37:24.008Z,294.90
2018-07-15T00:39:26.024Z,283.07
2018-07-15T00:41:27.991Z,280.62
2018-07-15T00:43:29.958Z,277.85
2018-07-15T00:45:31.964Z,275.80
2018-07-15T00:47:33.926Z,265.12
2018-07-15T00:49:35.889Z,260.50
2018-07-15T00:51:37.885Z,266.93
2018-07-15T00:53:39.860Z,255.18
2018-07-15T00:55:41.821Z,253.80
2018-07-15T00:57:43.820Z,250.55
2018-07-15T00:59:45.783Z,253.47
2018-07-15T01:01:47.777Z,251.07
2018-07-15T01:03:49.769Z,241.20
2018-07-15T01:05:51.731Z,247.10
2018-07-15T01:07:53.696Z,251.88
2018-07-15T01:09:55.713Z,232.87
2018-07-15T01:11:57.775Z,235.30
2018-07-15T01:13:59.759Z,239.02
2018-07-15T01:16:01.768Z,235.88
2018-07-15T01:18:03.724Z,224.85
2018-07-15T01:20:05.707Z,226.95
2018-07-15T01:22:07.726Z,221.93
2018-07-15T01:24:09.691Z,218.78
2018-07-15T01:26:11.667Z,221.75
2018-07-15T01:28:13.664Z,217.35
2018-07-15T01:30:15.632Z,215.00
2018-07-15T01:32:17.588Z,213.90
2018-07-15T01:34:19.596Z,212.20
2018-07-15T01:36:21.577Z,206.00
2018-07-15T01:38:23.547Z,191.53
2018-07-15T01:40:25.526Z,183.80
2018-07-15T01:42:27.484Z,179.47
2018-07-15T01:44:29.468Z,179.87
2018-07-15T01:46:31.477Z,173.25
2018-07-15T01:48:33.449Z,176.93
2018-07-15T01:50:35.429Z,178.05
2018-07-15T01:52:37.422Z,166.18
2018-07-15T01:54:39.394Z,162.22
2018-07-15T01:56:41.392Z,164.10
2018-07-15T01:58:43.364Z,170.62
2018-07-15T02:00:45.330Z,159.70
2018-07-15T02:02:47.293Z,146.37
2018-07-15T02:04:49.298Z,144.85
2018-07-15T02:06:51.256Z,157.22
2018-07-15T02:08:53.226Z,146.35
2018-07-15T02:10:55.215Z,140.75
2018-07-15T02:12:57.198Z,136.50
2018-07-15T02:14:59.132Z,138.35
2018-07-15T02:17:01.204Z,137.50
2018-07-15T02:19:03.407Z,133.67
2018-07-15T02:21:05.381Z,128.97
2018-07-15T02:23:07.354Z,138.60
2018-07-15T02:25:09.324Z,132.63
2018-07-15T02:27:11.305Z,125.47
2018-07-15T02:29:13.332Z,128.25
2018-07-15T02:31:15.324Z,124.22
2018-07-15T02:33:17.281Z,122.47
2018-07-15T02:35:19.284Z,119.55
2018-07-15T02:37:21.245Z,117.85
2018-07-15T02:39:23.234Z,114.17
2018-07-15T02:41:25.222Z,113.92
2018-07-15T02:43:27.186Z,107.95
2018-07-15T02:45:29.145Z,101.90
2018-07-15T02:47:31.141Z,109.15
2018-07-15T02:49:33.097Z,110.72
2018-07-15T02:51:35.085Z,104.65
2018-07-15T02:53:37.347Z,100.97
2018-07-15T02:55:39.310Z,97.82
2018-07-15T02:57:41.293Z,94.32
2018-07-15T02:59:43.274Z,91.82
2018-07-15T03:01:45.229Z,94.13
2018-07-15T03:03:47.202Z,89.50
2018-07-15T03:05:49.187Z,91.40
2018-07-15T03:07:51.160Z,82.55
2018-07-15T03:09:53.137Z,87.45
2018-07-15T03:11:55.111Z,81.82
2018-07-15T03:13:57.062Z,78.52
2018-07-15T03:15:59.029Z,82.25
2018-07-15T03:18:02.025Z,78.00
2018-07-15T03:20:04.000Z,79.62
2018-07-15T03:22:05.963Z,80.92
2018-07-15T03:24:07.951Z,81.60
2018-07-15T03:26:09.965Z,78.72
2018-07-15T03:28:11.914Z,79.82
2018-07-15T03:30:13.877Z,72.40
2018-07-15T03:32:15.844Z,74.50
2018-07-15T03:34:17.823Z,74.50
2018-07-15T03:36:19.787Z,74.75
2018-07-15T03:38:21.743Z,69.75
2018-07-15T03:40:23.781Z,65.80
2018-07-15T03:42:25.747Z,65.90
2018-07-15T03:44:27.690Z,66.40
2018-07-15T03:46:29.667Z,64.58
2018-07-15T03:48:31.636Z,65.47
2018-07-15T03:50:33.596Z,61.45
2018-07-15T03:52:35.589Z,62.85
2018-07-15T03:54:37.566Z,56.63
2018-07-15T03:56:39.529Z,48.38
2018-07-15T03:58:41.518Z,51.20
2018-07-15T04:00:43.536Z,53.90
2018-07-15T04:02:45.435Z,51.95
2018-07-15T04:04:47.424Z,48.73
2018-07-15T04:06:49.389Z,51.37
2018-07-15T04:08:51.393Z,49.98
2018-07-15T04:10:53.558Z,48.58
2018-07-15T04:12:55.539Z,45.50
2018-07-15T04:14:57.482Z,45.85
2018-07-15T04:16:59.453Z,44.58
2018-07-15T04:19:01.429Z,43.33
2018-07-15T04:21:03.385Z,41.00
2018-07-15T04:23:05.381Z,42.45
2018-07-15T04:25:07.345Z,39.92
2018-07-15T04:27:09.311Z,39.15
2018-07-15T04:29:11.274Z,40.33
2018-07-15T04:31:13.651Z,40.03
2018-07-15T04:33:15.479Z,40.28
2018-07-15T04:35:17.550Z,37.58
2018-07-15T04:37:19.511Z,38.88
2018-07-15T04:39:21.488Z,37.15
2018-07-15T04:41:23.464Z,38.50
2018-07-15T04:43:25.422Z,36.93
2018-07-15T04:45:27.384Z,36.15
2018-07-15T04:47:29.365Z,36.35
2018-07-15T04:49:31.330Z,34.53
2018-07-15T04:51:33.304Z,33.90
2018-07-15T04:53:35.288Z,34.48
2018-07-15T04:55:37.246Z,35.40
2018-07-15T04:57:39.230Z,32.53
2018-07-15T04:59:41.202Z,33.67
2018-07-15T05:01:43.158Z,31.62
2018-07-15T05:03:45.138Z,31.15
2018-07-15T05:05:47.097Z,32.15
2018-07-15T05:07:49.054Z,30.65
2018-07-15T05:09:51.055Z,29.27
2018-07-15T05:11:53.074Z,29.20
2018-07-15T05:13:55.040Z,28.10
2018-07-15T05:15:57.032Z,27.98
2018-07-15T05:17:58.996Z,27.60
2018-07-15T05:20:01.055Z,27.13
2018-07-15T05:22:03.004Z,27.42
2018-07-15T05:24:04.972Z,27.10
2018-07-15T05:26:06.934Z,27.62
2018-07-15T05:28:08.914Z,26.10
2018-07-15T05:30:10.968Z,27.55
2018-07-15T05:32:12.956Z,26.12
2018-07-15T05:34:15.018Z,27.95
2018-07-15T05:36:16.962Z,27.13
2018-07-15T05:38:18.945Z,25.57
2018-07-15T05:40:20.909Z,25.37
2018-07-15T05:42:22.894Z,14.73
2018-07-15T05:44:24.973Z,7.40
2018-07-15T05:46:26.864Z,4.90
2018-07-15T05:48:28.832Z,4.47
2018-07-15T05:50:30.801Z,4.70
2018-07-15T05:52:32.749Z,17.20
2018-07-15T05:54:34.750Z,20.95
2018-07-15T05:56:36.728Z,14.38
2018-07-15T05:58:38.689Z,10.80
2018-07-15T06:00:40.678Z,7.20
2018-07-15T06:02:42.647Z,6.15
2018-07-15T06:04:44.968Z,4.75
2018-07-15T06:06:46.940Z,5.03
2018-07-15T06:08:48.906Z,5.00
2018-07-15T06:10:50.964Z,4.80
2018-07-15T06:12:52.847Z,4.30
2018-07-15T06:14:54.797Z,4.53
2018-07-15T06:16:56.764Z,4.85
2018-07-15T06:18:58.749Z,4.75
2018-07-15T06:21:00.695Z,5.70
2018-07-15T06:23:02.660Z,5.30
2018-07-15T06:25:04.622Z,5.42
2018-07-15T06:27:06.598Z,4.58
2018-07-15T06:29:08.548Z,5.55
2018-07-15T06:31:10.548Z,16.12
2018-07-15T06:33:12.504Z,26.02
2018-07-15T06:35:14.482Z,20.52
2018-07-15T06:37:16.473Z,16.50
2018-07-15T06:39:18.432Z,10.72
2018-07-15T06:41:20.402Z,8.48
2018-07-15T06:43:22.385Z,6.35
2018-07-15T06:45:24.338Z,7.10
2018-07-15T06:47:26.301Z,16.65
2018-07-15T06:49:28.275Z,31.55
2018-07-15T06:51:30.238Z,28.98
2018-07-15T06:53:32.205Z,21.23
2018-07-15T06:55:34.163Z,18.73
2018-07-15T06:57:36.135Z,11.80
2018-07-15T06:59:38.485Z,10.43
2018-07-15T07:01:40.348Z,8.18
2018-07-15T07:03:42.288Z,6.30
2018-07-15T07:05:44.251Z,6.22
2018-07-15T07:07:46.256Z,6.50
2018-07-15T07:09:48.208Z,5.50
2018-07-15T07:11:50.152Z,4.95
2018-07-15T07:13:52.137Z,5.55
2018-07-15T07:15:54.098Z,57.10
2018-07-15T07:17:56.075Z,10.90
2018-07-15T07:19:58.071Z,12.73
2018-07-15T07:22:00.036Z,30.65
2018-07-15T07:24:01.991Z,22.48
2018-07-15T07:26:03.987Z,15.10
2018-07-15T07:28:05.940Z,12.80
2018-07-15T07:30:07.952Z,10.18
2018-07-15T07:32:10.320Z,9.28
2018-07-15T07:34:12.154Z,7.78
2018-07-15T07:36:14.133Z,6.75
2018-07-15T07:38:16.106Z,6.28
2018-07-15T07:40:18.055Z,5.83
2018-07-15T07:42:20.036Z,6.53
2018-07-15T07:44:22.002Z,5.35
2018-07-15T07:46:23.965Z,6.05
2018-07-15T07:48:25.947Z,5.75
2018-07-15T07:50:27.926Z,5.97
2018-07-15T07:52:29.894Z,5.42
2018-07-15T07:54:31.846Z,5.20
2018-07-15T07:56:34.106Z,4.22
2018-07-15T07:58:36.083Z,4.70
2018-07-15T08:00:38.049Z,3.83
2018-07-15T08:02:40.023Z,4.00
2018-07-15T08:04:41.993Z,5.15
2018-07-15T08:06:43.941Z,15.23
2018-07-15T08:08:45.915Z,22.55
2018-07-15T08:10:47.889Z,32.78
2018-07-15T08:12:49.846Z,22.15
2018-07-15T08:14:51.831Z,15.13
2018-07-15T08:16:53.782Z,14.50
2018-07-15T08:18:55.759Z,8.48
2018-07-15T08:20:57.745Z,9.85
2018-07-15T08:22:59.714Z,6.95
2018-07-15T08:25:01.692Z,6.10
2018-07-15T08:27:03.654Z,5.95
2018-07-15T08:29:05.632Z,15.80
2018-07-15T08:31:07.600Z,17.50
2018-07-15T08:33:09.608Z,50.20
2018-07-15T08:35:11.568Z,28.67
2018-07-15T08:37:13.540Z,26.77
2018-07-15T08:39:15.542Z,21.65
2018-07-15T08:41:17.505Z,19.12
2018-07-15T08:43:19.472Z,10.50
2018-07-15T08:45:21.448Z,9.20
2018-07-15T08:47:23.467Z,9.38
2018-07-15T08:49:25.444Z,9.28
2018-07-15T08:51:27.393Z,8.75
2018-07-15T08:53:29.386Z,6.92
2018-07-15T08:55:31.718Z,6.47
2018-07-15T08:57:33.592Z,7.75
2018-07-15T08:59:35.561Z,6.33
2018-07-15T09:01:37.528Z,6.28
2018-07-15T09:03:39.537Z,6.50
2018-07-15T09:05:41.508Z,6.42
2018-07-15T09:07:43.472Z,5.37
2018-07-15T09:09:45.446Z,3.60
2018-07-15T09:11:47.426Z,10.25
2018-07-15T09:13:49.385Z,21.35
2018-07-15T09:15:51.385Z,15.15
2018-07-15T09:17:53.718Z,25.85
2018-07-15T09:19:55.556Z,29.67
2018-07-15T09:21:57.567Z,45.67
2018-07-15T09:23:59.598Z,32.83
2018-07-15T09:26:01.932Z,56.00
2018-07-15T09:28:03.817Z,89.83
2018-07-15T09:30:05.776Z,36.75
2018-07-15T09:32:07.738Z,47.05
2018-07-15T09:34:09.724Z,124.90
2018-07-15T09:36:11.690Z,79.53
2018-07-15T09:38:13.672Z,107.32
2018-07-15T09:40:15.666Z,101.47
2018-07-15T09:42:17.647Z,71.70
2018-07-15T09:44:19.999Z,107.27
2018-07-15T09:46:21.879Z,153.85
2018-07-15T09:48:23.853Z,121.87
2018-07-15T09:50:25.829Z,145.53
2018-07-15T09:52:27.816Z,205.35
2018-07-15T09:54:29.801Z,349.75
2018-07-15T09:56:31.774Z,364.30
2018-07-15T09:58:33.760Z,207.70
2018-07-15T10:00:35.719Z,340.48
2018-07-15T10:02:37.692Z,256.93
2018-07-15T10:04:39.756Z,251.92
2018-07-15T10:06:41.686Z,350.68
2018-07-15T10:08:43.660Z,301.40
2018-07-15T10:10:45.681Z,241.85
2018-07-15T10:12:47.624Z,338.10
2018-07-15T10:14:49.583Z,383.02
2018-07-15T10:16:51.588Z,450.83
2018-07-15T10:18:53.619Z,346.95
2018-07-15T10:20:55.524Z,202.82
2018-07-15T10:22:57.516Z,171.30
2018-07-15T10:24:59.496Z,309.95
2018-07-15T10:27:01.458Z,130.32
2018-07-15T10:29:03.458Z,298.90
2018-07-15T10:31:05.439Z,309.40
2018-07-15T10:33:07.422Z,416.77
2018-07-15T10:35:09.424Z,255.25
2018-07-15T10:37:11.407Z,219.22
2018-07-15T10:39:13.375Z,219.95
2018-07-15T10:41:15.361Z,226.98
2018-07-15T10:43:17.383Z,177.60
2018-07-15T10:45:19.339Z,174.00
2018-07-15T10:47:21.319Z,176.45
2018-07-15T10:49:23.281Z,140.07
2018-07-15T10:51:25.267Z,153.65
2018-07-15T10:53:27.268Z,223.80
2018-07-15T10:55:29.948Z,461.32
2018-07-15T10:57:31.920Z,628.80
2018-07-15T10:59:33.914Z,305.35
2018-07-15T11:01:35.902Z,206.68
2018-07-15T11:03:37.884Z,197.47
2018-07-15T11:05:39.887Z,174.12
2018-07-15T11:07:41.935Z,114.70
2018-07-15T11:09:43.890Z,90.72
2018-07-15T11:11:45.873Z,107.95
2018-07-15T11:13:47.846Z,133.55
2018-07-15T11:15:50.770Z,166.50
2018-07-15T11:17:52.811Z,126.72
2018-07-15T11:19:54.795Z,122.35
2018-07-15T11:21:56.752Z,117.13
2018-07-15T11:23:58.760Z,119.13
2018-07-15T11:26:00.754Z,103.85
2018-07-15T11:28:03.052Z,93.55
2018-07-15T11:30:05.043Z,73.07
2018-07-15T11:32:07.005Z,76.22
2018-07-15T11:34:08.973Z,83.30
2018-07-15T11:36:10.982Z,76.40
2018-07-15T11:38:12.968Z,54.33
2018-07-15T11:40:14.929Z,61.30
2018-07-15T11:42:16.898Z,56.02
2018-07-15T11:44:18.858Z,54.85
2018-07-15T11:46:20.845Z,56.98
2018-07-15T11:48:22.870Z,49.83
2018-07-15T11:50:24.844Z,50.20
2018-07-15T11:52:26.808Z,52.27
2018-07-15T11:54:28.844Z,47.23
2018-07-15T11:56:30.784Z,45.20
2018-07-15T11:58:32.755Z,50.43
2018-07-15T12:00:34.742Z,48.17
2018-07-15T12:02:36.711Z,46.92
2018-07-15T12:04:38.666Z,42.33
2018-07-15T12:06:40.654Z,37.93
2018-07-15T12:08:42.624Z,37.93
2018-07-15T12:10:44.603Z,34.80
2018-07-15T12:12:46.883Z,33.83
2018-07-15T12:14:48.854Z,32.00
2018-07-15T12:16:50.804Z,33.60
2018-07-15T12:18:52.794Z,24.37
2018-07-15T12:20:54.764Z,23.57
2018-07-15T12:22:56.736Z,24.07
2018-07-15T12:24:58.729Z,23.27
2018-07-15T12:27:00.715Z,24.12
2018-07-15T12:29:02.690Z,23.30
2018-07-15T12:31:04.687Z,23.65
2018-07-15T12:33:06.631Z,18.48
2018-07-15T12:35:08.598Z,19.00
2018-07-15T12:37:10.613Z,19.75
2018-07-15T12:39:12.569Z,21.02
2018-07-15T12:41:14.618Z,19.70
2018-07-15T12:43:16.601Z,20.45
2018-07-15T12:45:18.581Z,17.48
2018-07-15T12:47:20.541Z,13.03
2018-07-15T12:49:22.532Z,12.58
2018-07-15T12:51:24.528Z,12.47
2018-07-15T12:53:26.472Z,12.63
2018-07-15T12:55:28.471Z,12.15
2018-07-15T12:57:30.433Z,14.83
2018-07-15T12:59:32.410Z,12.40
2018-07-15T13:01:34.400Z,11.95
2018-07-15T13:03:36.364Z,12.35
2018-07-15T13:05:38.316Z,11.55
2018-07-15T13:07:40.285Z,10.38
2018-07-15T13:09:42.265Z,9.48
2018-07-15T13:11:44.425Z,10.93
2018-07-15T13:13:46.421Z,28.92
2018-07-15T13:15:48.395Z,82.15
2018-07-15T13:17:50.353Z,157.55
2018-07-15T13:19:52.360Z,230.95
2018-07-15T13:21:54.342Z,81.37
2018-07-15T13:23:56.317Z,114.42
2018-07-15T13:25:58.292Z,73.87
2018-07-15T13:28:00.268Z,46.98
2018-07-15T13:30:02.242Z,43.90
2018-07-15T13:32:04.238Z,31.75
2018-07-15T13:34:06.200Z,26.40
2018-07-15T13:36:08.169Z,25.23
2018-07-15T13:38:10.160Z,23.85
2018-07-15T13:40:12.123Z,17.77
2018-07-15T13:42:14.111Z,19.77
2018-07-15T13:44:16.115Z,17.98
2018-07-15T13:46:18.087Z,10.18
2018-07-15T13:48:20.049Z,10.45
2018-07-15T13:50:22.035Z,5.87
2018-07-15T13:52:24.031Z,11.73
2018-07-15T13:54:25.988Z,56.75
2018-07-15T13:56:27.981Z,82.78
2018-07-15T13:58:29.957Z,72.25
2018-07-15T14:00:31.911Z,48.40
2018-07-15T14:02:33.921Z,43.80
2018-07-15T14:04:35.907Z,34.00
2018-07-15T14:06:37.879Z,33.33
2018-07-15T14:08:39.898Z,20.17
2018-07-15T14:10:41.863Z,14.98
2018-07-15T14:12:44.191Z,10.82
2018-07-15T14:14:46.160Z,9.23
2018-07-15T14:16:48.235Z,8.13
2018-07-15T14:18:50.168Z,12.28
2018-07-15T14:20:52.152Z,10.55
2018-07-15T14:22:54.140Z,10.05
2018-07-15T14:24:56.106Z,162.05
2018-07-15T14:26:58.105Z,35.55
2018-07-15T14:29:00.078Z,36.15
2018-07-15T14:31:02.030Z,35.40
2018-07-15T14:33:04.028Z,32.50
2018-07-15T14:35:06.006Z,17.73
2018-07-15T14:37:07.960Z,17.25
2018-07-15T14:39:09.921Z,26.07
2018-07-15T14:41:11.900Z,23.20
2018-07-15T14:43:13.872Z,12.33
2018-07-15T14:45:15.845Z,16.73
2018-07-15T14:47:17.819Z,11.97
2018-07-15T14:49:19.793Z,11.83
2018-07-15T14:51:21.780Z,9.93
2018-07-15T14:53:23.746Z,8.93
2018-07-15T14:55:26.073Z,6.22
2018-07-15T14:57:27.949Z,143.10
2018-07-15T14:59:29.911Z,79.75
2018-07-15T15:01:31.889Z,335.98
2018-07-15T15:03:33.878Z,85.07
2018-07-15T15:05:35.848Z,77.67
2018-07-15T15:07:37.827Z,40.95
2018-07-15T15:09:39.804Z,32.15
2018-07-15T15:11:41.795Z,29.12
2018-07-15T15:13:43.761Z,59.63
2018-07-15T15:15:45.777Z,67.40
2018-07-15T15:17:47.741Z,74.95
2018-07-15T15:19:49.716Z,54.85
2018-07-15T15:21:51.729Z,155.97
2018-07-15T15:23:53.682Z,168.00
2018-07-15T15:25:55.675Z,369.93
2018-07-15T15:27:57.666Z,428.25
2018-07-15T15:29:59.650Z,357.05
2018-07-15T15:32:01.610Z,464.63
2018-07-15T15:34:03.608Z,460.07
2018-07-15T15:36:05.582Z,383.02
2018-07-15T15:38:07.576Z,311.43
2018-07-15T15:40:09.551Z,285.22
2018-07-15T15:42:11.514Z,216.38
2018-07-15T15:44:13.525Z,234.27
2018-07-15T15:46:15.493Z,142.25
2018-07-15T15:48:17.471Z,149.62
2018-07-15T15:50:19.454Z,369.32
2018-07-15T15:52:21.444Z,405.75
2018-07-15T15:54:23.399Z,336.52
2018-07-15T15:56:25.398Z,229.72
2018-07-15T15:58:27.381Z,195.77
2018-07-15T16:00:29.358Z,188.00
2018-07-15T16:02:31.351Z,167.55
2018-07-15T16:04:33.333Z,142.65
2018-07-15T16:06:35.296Z,124.05
2018-07-15T16:08:37.283Z,117.55
2018-07-15T16:10:39.243Z,93.78
2018-07-15T16:12:41.249Z,69.92
2018-07-15T16:14:43.226Z,65.95
2018-07-15T16:16:45.264Z,52.40
2018-07-15T16:18:47.233Z,52.25
2018-07-15T16:20:49.215Z,51.33
2018-07-15T16:22:51.175Z,39.05
2018-07-15T16:24:53.154Z,35.25
2018-07-15T16:26:55.119Z,38.88
2018-07-15T16:28:57.095Z,29.90
2018-07-15T16:30:59.097Z,29.15
2018-07-15T16:33:01.058Z,24.67
2018-07-15T16:35:03.066Z,19.95
2018-07-15T16:37:05.034Z,14.00
2018-07-15T16:39:07.012Z,19.62
2018-07-15T16:41:08.994Z,21.40
2018-07-15T16:43:10.972Z,100.87
2018-07-15T16:45:12.958Z,116.60
2018-07-15T16:47:14.945Z,133.03
2018-07-15T16:49:16.915Z,79.75
2018-07-15T16:51:18.899Z,90.72
2018-07-15T16:53:20.889Z,71.87
2018-07-15T16:55:22.866Z,863.30
2018-07-15T16:57:24.846Z,693.45
2018-07-15T16:59:26.838Z,95.60
2018-07-15T17:01:28.878Z,141.30
2018-07-15T17:03:30.816Z,206.50
2018-07-15T17:05:32.810Z,247.42
2018-07-15T17:07:34.790Z,141.65
2018-07-15T17:09:36.761Z,87.05
2018-07-15T17:11:38.758Z,80.62
2018-07-15T17:13:40.736Z,88.62
2018-07-15T17:15:42.704Z,79.27
2018-07-15T17:17:44.694Z,80.95
2018-07-15T17:19:46.666Z,76.10
2018-07-15T17:21:48.662Z,73.72
2018-07-15T17:23:50.648Z,72.47
2018-07-15T17:25:52.612Z,72.67
2018-07-15T17:27:54.647Z,70.30
2018-07-15T17:29:56.625Z,69.40
2018-07-15T17:31:58.609Z,73.70
2018-07-15T17:34:00.586Z,185.82
2018-07-15T17:36:02.576Z,333.38
2018-07-15T17:38:04.578Z,379.32
2018-07-15T17:40:06.636Z,331.32
2018-07-15T17:42:08.591Z,328.02
2018-07-15T17:44:10.578Z,301.50
2018-07-15T17:46:12.564Z,302.85
2018-07-15T17:48:14.563Z,277.85
2018-07-15T17:50:16.530Z,281.73
2018-07-15T17:52:18.533Z,269.77
2018-07-15T17:54:20.526Z,287.70
2018-07-15T17:56:22.511Z,365.82
2018-07-15T17:58:24.532Z,407.45
2018-07-15T18:00:26.471Z,400.65
2018-07-15T18:02:28.442Z,400.87
2018-07-15T18:04:30.440Z,372.77
2018-07-15T18:06:32.446Z,398.48
2018-07-15T18:08:34.427Z,458.85
2018-07-15T18:10:36.409Z,491.52
2018-07-15T18:12:38.387Z,477.30
2018-07-15T18:14:40.393Z,449.50
2018-07-15T18:16:42.383Z,470.68
2018-07-15T18:18:44.367Z,468.02
2018-07-15T18:20:46.509Z,464.97
2018-07-15T18:22:48.331Z,443.35
2018-07-15T18:24:50.334Z,450.45
2018-07-15T18:26:52.353Z,440.62
2018-07-15T18:28:54.335Z,422.13
2018-07-15T18:30:56.303Z,407.90
2018-07-15T18:32:58.283Z,386.98
2018-07-15T18:35:00.276Z,403.48
2018-07-15T18:37:02.275Z,409.90
2018-07-15T18:39:04.358Z,435.95
2018-07-15T18:41:06.259Z,457.47
2018-07-15T18:43:08.245Z,472.17
2018-07-15T18:45:10.224Z,465.77
2018-07-15T18:47:12.208Z,461.58
2018-07-15T18:49:14.198Z,472.75
2018-07-15T18:51:16.174Z,509.98
2018-07-15T18:53:18.153Z,563.98
2018-07-15T18:55:20.130Z,592.98
2018-07-15T18:57:22.111Z,578.48
2018-07-15T18:59:24.504Z,573.10
2018-07-15T19:01:26.341Z,571.90
2018-07-15T19:03:28.308Z,555.27
2018-07-15T19:05:30.441Z,543.05
2018-07-15T19:07:32.412Z,529.40
2018-07-15T19:09:34.423Z,535.97
2018-07-15T19:11:36.409Z,578.83
2018-07-15T19:13:38.385Z,629.77
2018-07-15T19:15:40.353Z,667.12
2018-07-15T19:17:42.360Z,687.20
2018-07-15T19:19:44.356Z,660.25
2018-07-15T19:21:46.343Z,677.45
2018-07-15T19:23:48.326Z,646.05
2018-07-15T19:25:50.303Z,672.15
2018-07-15T19:27:52.285Z,724.75
2018-07-15T19:29:54.287Z,736.40
2018-07-15T19:31:56.282Z,753.08
2018-07-15T19:33:58.266Z,755.27
2018-07-15T19:36:00.269Z,746.63
2018-07-15T19:38:02.264Z,736.10
2018-07-15T19:40:04.290Z,740.70
2018-07-15T19:42:06.294Z,722.77
2018-07-15T19:44:08.270Z,727.55
2018-07-15T19:46:10.236Z,734.08
2018-07-15T19:48:12.232Z,713.90
2018-07-15T19:50:14.223Z,714.80
2018-07-15T19:52:16.566Z,704.83
2018-07-15T19:54:18.430Z,704.23
2018-07-15T19:56:20.422Z,703.52
2018-07-15T19:58:22.421Z,690.02
2018-07-15T20:00:24.475Z,690.30
2018-07-15T20:02:26.433Z,675.45
2018-07-15T20:04:28.403Z,681.55
2018-07-15T20:06:30.401Z,705.03
2018-07-15T20:08:32.368Z,757.38
2018-07-15T20:10:34.758Z,756.35
2018-07-15T20:12:36.607Z,762.83
2018-07-15T20:14:38.580Z,754.48
2018-07-15T20:16:40.594Z,746.42
2018-07-15T20:18:42.975Z,773.08
2018-07-15T20:20:45.119Z,770.52
2018-07-15T20:22:47.029Z,777.30
2018-07-15T20:24:49.034Z,795.12
2018-07-15T20:26:50.998Z,795.33
2018-07-15T20:28:52.993Z,786.62
2018-07-15T20:30:54.990Z,787.25
2018-07-15T20:32:56.965Z,795.57
2018-07-15T20:34:58.935Z,789.32
2018-07-15T20:37:00.898Z,784.30
2018-07-15T20:39:03.122Z,789.67
2018-07-15T20:41:05.097Z,803.60
2018-07-15T20:43:07.105Z,822.72
2018-07-15T20:45:09.091Z,833.25
2018-07-15T20:47:11.056Z,826.55
2018-07-15T20:49:13.108Z,817.70
2018-07-15T20:51:15.106Z,819.92
2018-07-15T20:53:17.470Z,816.60
2018-07-15T20:55:19.335Z,800.33
2018-07-15T20:57:21.306Z,806.45
2018-07-15T20:59:23.276Z,810.45
2018-07-15T21:01:25.284Z,803.10
2018-07-15T21:03:27.254Z,804.67
2018-07-15T21:05:29.246Z,816.32
2018-07-15T21:07:31.252Z,841.80
2018-07-15T21:09:33.232Z,839.40
2018-07-15T21:11:35.194Z,838.55
2018-07-15T21:13:37.197Z,843.73
2018-07-15T21:15:39.178Z,819.65
2018-07-15T21:17:41.164Z,875.30
2018-07-15T21:19:43.162Z,854.33
2018-07-15T21:21:45.150Z,869.15
2018-07-15T21:23:47.112Z,872.67
2018-07-15T21:25:49.126Z,882.10
2018-07-15T21:27:51.094Z,875.75
2018-07-15T21:29:53.095Z,857.20
2018-07-15T21:31:55.094Z,869.97
2018-07-15T21:33:57.061Z,865.42
2018-07-15T21:35:59.054Z,865.53
2018-07-15T21:38:01.062Z,863.42
2018-07-15T21:40:03.019Z,862.00
2018-07-15T21:42:05.008Z,863.40
2018-07-15T21:44:07.067Z,859.77
2018-07-15T21:46:08.985Z,839.75
2018-07-15T21:48:10.963Z,849.87
2018-07-15T21:50:12.940Z,840.45
2018-07-15T21:52:14.909Z,846.20
2018-07-15T21:54:16.895Z,840.17
2018-07-15T21:56:18.887Z,840.67
2018-07-15T21:58:20.867Z,832.80
2018-07-15T22:00:22.857Z,812.65
2018-07-15T22:02:24.823Z,798.40
2018-07-15T22:04:26.797Z,803.10
2018-07-15T22:06:28.788Z,812.52
2018-07-15T22:08:30.771Z,813.45
2018-07-15T22:10:32.760Z,817.83
2018-07-15T22:12:34.739Z,800.50
2018-07-15T22:14:36.718Z,803.45
2018-07-15T22:16:38.698Z,795.75
2018-07-15T22:18:40.696Z,795.73
2018-07-15T22:20:43.046Z,808.15
2018-07-15T22:22:44.885Z,823.62
2018-07-15T22:24:46.907Z,792.65
2018-07-15T22:26:48.917Z,778.10
2018-07-15T22:28:50.895Z,809.35
2018-07-15T22:30:53.276Z,808.80
2018-07-15T22:32:55.127Z,772.40
2018-07-15T22:34:57.092Z,770.25
2018-07-15T22:36:59.096Z,767.10
2018-07-15T22:39:01.113Z,793.52
2018-07-15T22:41:03.066Z,775.05
2018-07-15T22:43:05.044Z,755.67
2018-07-15T22:45:07.026Z,758.85
2018-07-15T22:47:08.994Z,771.87
2018-07-15T22:49:10.982Z,773.75
2018-07-15T22:51:12.959Z,779.48
2018-07-15T22:53:14.944Z,770.77
2018-07-15T22:55:16.927Z,766.35
2018-07-15T22:57:18.916Z,757.23
2018-07-15T22:59:20.874Z,773.88
2018-07-15T23:01:22.855Z,767.60
2018-07-15T23:03:24.811Z,762.05
2018-07-15T23:05:26.783Z,760.73
2018-07-15T23:07:28.755Z,754.10
2018-07-15T23:09:30.718Z,750.65
2018-07-15T23:11:32.689Z,760.00
2018-07-15T23:13:34.696Z,750.48
2018-07-15T23:15:36.657Z,758.00
2018-07-15T23:17:38.642Z,746.53
2018-07-15T23:19:40.604Z,738.25
2018-07-15T23:21:42.608Z,749.65
2018-07-15T23:23:44.583Z,746.45
2018-07-15T23:25:46.553Z,738.60
2018-07-15T23:27:48.527Z,731.58
2018-07-15T23:29:50.546Z,742.35
2018-07-15T23:31:52.518Z,719.02
2018-07-15T23:33:54.481Z,737.65
2018-07-15T23:35:56.468Z,730.52
2018-07-15T23:37:58.446Z,738.35
2018-07-15T23:40:00.437Z,739.02
2018-07-15T23:42:02.403Z,734.35
2018-07-15T23:44:04.376Z,722.45
2018-07-15T23:46:06.366Z,718.63
2018-07-15T23:48:08.348Z,727.25
2018-07-15T23:50:10.326Z,709.50
2018-07-15T23:52:12.289Z,697.42
2018-07-15T23:54:14.264Z,722.67
2018-07-15T23:56:16.236Z,680.90
2018-07-15T23:58:18.232Z,614.08
